sensor_id;sensor_type;location;lat;lon;timestamp;pressure;altitude;pressure_sealevel;temperature;humidity
37852;BME280;23691;52.486;4.650;2024-03-23T00:51:50;101077.63;;;10.49;61.80
37852;BME280;23691;52.486;4.650;2024-03-23T00:54:15;101083.56;;;10.43;61.58
37852;BME280;23691;52.486;4.650;2024-03-23T00:56:40;101068.69;;;10.40;61.16
37852;BME280;23691;52.486;4.650;2024-03-23T00:59:06;101072.69;;;10.36;60.97
37852;BME280;23691;52.486;4.650;2024-03-23T01:01:31;101075.97;;;10.30;60.91
37852;BME280;23691;52.486;4.650;2024-03-23T01:04:05;101068.47;;;10.34;60.55
37852;BME280;23691;52.486;4.650;2024-03-23T01:06:31;101075.66;;;10.33;60.76
37852;BME280;23691;52.486;4.650;2024-03-23T01:08:56;101062.28;;;10.33;60.51
37852;BME280;23691;52.486;4.650;2024-03-23T01:11:22;101060.63;;;10.32;60.38
37852;BME280;23691;52.486;4.650;2024-03-23T01:13:47;101059.94;;;10.30;60.69
37852;BME280;23691;52.486;4.650;2024-03-23T01:16:12;101058.94;;;10.31;60.52
37852;BME280;23691;52.486;4.650;2024-03-23T01:18:38;101052.44;;;10.34;60.46
37852;BME280;23691;52.486;4.650;2024-03-23T01:21:04;101051.75;;;10.31;60.51
37852;BME280;23691;52.486;4.650;2024-03-23T01:23:30;101055.19;;;10.24;60.54
37852;BME280;23691;52.486;4.650;2024-03-23T01:25:56;101045.44;;;10.15;60.41
37852;BME280;23691;52.486;4.650;2024-03-23T01:28:22;101036.88;;;10.11;60.85
37852;BME280;23691;52.486;4.650;2024-03-23T01:30:48;101038.19;;;10.07;61.13
37852;BME280;23691;52.486;4.650;2024-03-23T01:33:13;101040.69;;;10.08;60.96
37852;BME280;23691;52.486;4.650;2024-03-23T01:35:38;101037.50;;;10.05;60.73
37852;BME280;23691;52.486;4.650;2024-03-23T01:38:06;101036.97;;;10.01;60.35
37852;BME280;23691;52.486;4.650;2024-03-23T01:40:32;101046.47;;;9.96;60.46
37852;BME280;23691;52.486;4.650;2024-03-23T01:42:58;101045.94;;;9.92;60.54
37852;BME280;23691;52.486;4.650;2024-03-23T01:45:24;101047.94;;;9.90;60.52
37852;BME280;23691;52.486;4.650;2024-03-23T01:47:51;101041.75;;;9.89;60.21
37852;BME280;23691;52.486;4.650;2024-03-23T01:50:18;101032.22;;;9.87;60.48
37852;BME280;23691;52.486;4.650;2024-03-23T01:52:43;101028.69;;;9.86;59.72
37852;BME280;23691;52.486;4.650;2024-03-23T01:55:09;101019.00;;;9.85;60.01
37852;BME280;23691;52.486;4.650;2024-03-23T01:57:35;101017.84;;;9.88;59.99
37852;BME280;23691;52.486;4.650;2024-03-23T02:00:00;101014.03;;;9.91;59.63
37852;BME280;23691;52.486;4.650;2024-03-23T02:02:25;101006.00;;;9.91;59.74
37852;BME280;23691;52.486;4.650;2024-03-23T02:04:51;101010.19;;;9.93;59.21
37852;BME280;23691;52.486;4.650;2024-03-23T02:07:17;101002.03;;;9.95;58.96
37852;BME280;23691;52.486;4.650;2024-03-23T02:09:43;101000.19;;;9.95;58.76
37852;BME280;23691;52.486;4.650;2024-03-23T02:12:09;101002.03;;;9.95;58.77
37852;BME280;23691;52.486;4.650;2024-03-23T02:14:38;101003.84;;;9.94;59.05
37852;BME280;23691;52.486;4.650;2024-03-23T02:17:03;101001.66;;;9.89;58.88
37852;BME280;23691;52.486;4.650;2024-03-23T02:19:30;100993.47;;;9.91;58.84
37852;BME280;23691;52.486;4.650;2024-03-23T02:21:55;100993.47;;;9.91;58.79
37852;BME280;23691;52.486;4.650;2024-03-23T02:24:21;100988.66;;;9.95;58.91
37852;BME280;23691;52.486;4.650;2024-03-23T02:26:46;100987.16;;;9.92;58.93
37852;BME280;23691;52.486;4.650;2024-03-23T02:29:13;100980.66;;;9.95;59.06
37852;BME280;23691;52.486;4.650;2024-03-23T02:31:39;100978.97;;;9.94;58.93
37852;BME280;23691;52.486;4.650;2024-03-23T02:34:04;100971.94;;;9.93;58.82
37852;BME280;23691;52.486;4.650;2024-03-23T02:36:31;100982.97;;;9.89;58.69
37852;BME280;23691;52.486;4.650;2024-03-23T02:38:56;100965.91;;;9.91;58.51
37852;BME280;23691;52.486;4.650;2024-03-23T02:41:22;100973.94;;;9.91;58.51
37852;BME280;23691;52.486;4.650;2024-03-23T02:43:52;100967.44;;;9.93;58.42
37852;BME280;23691;52.486;4.650;2024-03-23T02:46:17;100973.09;;;9.90;58.68
37852;BME280;23691;52.486;4.650;2024-03-23T02:48:43;100965.22;;;9.88;58.80
37852;BME280;23691;52.486;4.650;2024-03-23T02:51:08;100963.56;;;9.87;59.09
37852;BME280;23691;52.486;4.650;2024-03-23T02:53:36;100953.25;;;9.93;58.97
37852;BME280;23691;52.486;4.650;2024-03-23T02:56:02;100958.41;;;9.94;58.75
37852;BME280;23691;52.486;4.650;2024-03-23T02:58:27;100950.34;;;9.86;59.27
37852;BME280;23691;52.486;4.650;2024-03-23T03:00:53;100951.19;;;9.86;59.36
37852;BME280;23691;52.486;4.650;2024-03-23T03:03:18;100948.38;;;9.88;59.30
37852;BME280;23691;52.486;4.650;2024-03-23T03:05:43;100943.84;;;9.88;59.62
37852;BME280;23691;52.486;4.650;2024-03-23T03:08:09;100944.84;;;9.87;59.22
37852;BME280;23691;52.486;4.650;2024-03-23T03:10:34;100941.97;;;9.81;59.38
37852;BME280;23691;52.486;4.650;2024-03-23T03:13:01;100942.66;;;9.83;59.65
37852;BME280;23691;52.486;4.650;2024-03-23T03:15:27;100931.41;;;9.79;59.50
37852;BME280;23691;52.486;4.650;2024-03-23T03:17:53;100935.47;;;9.83;59.99
37852;BME280;23691;52.486;4.650;2024-03-23T03:20:18;100934.16;;;9.87;60.14
37852;BME280;23691;52.486;4.650;2024-03-23T03:22:43;100929.81;;;9.86;60.60
37852;BME280;23691;52.486;4.650;2024-03-23T03:25:09;100931.63;;;9.86;61.10
37852;BME280;23691;52.486;4.650;2024-03-23T03:27:35;100925.94;;;9.81;61.23
37852;BME280;23691;52.486;4.650;2024-03-23T03:30:00;100941.59;;;9.76;61.92
37852;BME280;23691;52.486;4.650;2024-03-23T03:32:32;100939.94;;;9.75;62.07
37852;BME280;23691;52.486;4.650;2024-03-23T03:34:57;100930.53;;;9.71;62.14
37852;BME280;23691;52.486;4.650;2024-03-23T03:37:22;100924.66;;;9.67;62.33
37852;BME280;23691;52.486;4.650;2024-03-23T03:39:51;100931.69;;;9.68;62.24
37852;BME280;23691;52.486;4.650;2024-03-23T03:42:16;100923.00;;;9.66;62.16
37852;BME280;23691;52.486;4.650;2024-03-23T03:44:42;100926.88;;;9.72;61.91
37852;BME280;23691;52.486;4.650;2024-03-23T03:47:07;100910.53;;;9.75;61.68
37852;BME280;23691;52.486;4.650;2024-03-23T03:49:32;100917.88;;;9.73;61.56
37852;BME280;23691;52.486;4.650;2024-03-23T03:51:58;100916.50;;;9.68;61.69
37852;BME280;23691;52.486;4.650;2024-03-23T03:54:23;100908.13;;;9.63;61.02
37852;BME280;23691;52.486;4.650;2024-03-23T03:56:49;100904.06;;;9.59;61.22
37852;BME280;23691;52.486;4.650;2024-03-23T03:59:15;100909.41;;;9.59;61.15
37852;BME280;23691;52.486;4.650;2024-03-23T04:01:41;100901.59;;;9.58;61.21
37852;BME280;23691;52.486;4.650;2024-03-23T04:04:06;100903.38;;;9.57;61.29
37852;BME280;23691;52.486;4.650;2024-03-23T04:06:32;100898.72;;;9.59;61.39
37852;BME280;23691;52.486;4.650;2024-03-23T04:08:58;100896.06;;;9.59;61.73
37852;BME280;23691;52.486;4.650;2024-03-23T04:11:23;100896.94;;;9.60;61.95
37852;BME280;23691;52.486;4.650;2024-03-23T04:13:49;100900.25;;;9.62;62.12
37852;BME280;23691;52.486;4.650;2024-03-23T04:16:27;100896.44;;;9.64;62.39
37852;BME280;23691;52.486;4.650;2024-03-23T04:18:53;100890.78;;;9.67;62.54
37852;BME280;23691;52.486;4.650;2024-03-23T04:21:19;100887.25;;;9.67;62.50
37852;BME280;23691;52.486;4.650;2024-03-23T04:23:45;100886.44;;;9.66;61.85
37852;BME280;23691;52.486;4.650;2024-03-23T04:26:10;100888.78;;;9.70;61.88
37852;BME280;23691;52.486;4.650;2024-03-23T04:28:36;100884.44;;;9.68;61.76
37852;BME280;23691;52.486;4.650;2024-03-23T04:31:04;100894.13;;;9.70;61.07
37852;BME280;23691;52.486;4.650;2024-03-23T04:33:30;100887.94;;;9.69;61.27
37852;BME280;23691;52.486;4.650;2024-03-23T04:35:56;100880.09;;;9.67;61.47
37852;BME280;23691;52.486;4.650;2024-03-23T04:38:21;100894.28;;;9.68;61.45
37852;BME280;23691;52.486;4.650;2024-03-23T04:40:56;100893.28;;;9.69;61.49
37852;BME280;23691;52.486;4.650;2024-03-23T04:43:22;100891.78;;;9.66;61.36
37852;BME280;23691;52.486;4.650;2024-03-23T04:45:48;100892.78;;;9.65;61.74
37852;BME280;23691;52.486;4.650;2024-03-23T04:48:13;100890.94;;;9.66;61.37
37852;BME280;23691;52.486;4.650;2024-03-23T04:50:38;100881.91;;;9.67;61.40
37852;BME280;23691;52.486;4.650;2024-03-23T04:53:04;100882.47;;;9.71;61.50
37852;BME280;23691;52.486;4.650;2024-03-23T04:55:29;100892.81;;;9.74;62.12
37852;BME280;23691;52.486;4.650;2024-03-23T04:57:56;100890.69;;;9.77;62.03
37852;BME280;23691;52.486;4.650;2024-03-23T05:00:21;100887.16;;;9.77;61.98
37852;BME280;23691;52.486;4.650;2024-03-23T05:02:46;100885.16;;;9.79;62.69
37852;BME280;23691;52.486;4.650;2024-03-23T05:05:12;100877.78;;;9.73;62.55
37852;BME280;23691;52.486;4.650;2024-03-23T05:07:37;100889.78;;;9.68;62.72
37852;BME280;23691;52.486;4.650;2024-03-23T05:10:03;100878.78;;;9.72;62.68
37852;BME280;23691;52.486;4.650;2024-03-23T05:12:29;100884.28;;;9.70;62.55
37852;BME280;23691;52.486;4.650;2024-03-23T05:14:55;100888.59;;;9.63;62.41
37852;BME280;23691;52.486;4.650;2024-03-23T05:17:20;100881.19;;;9.57;62.50
37852;BME280;23691;52.486;4.650;2024-03-23T05:19:46;100889.19;;;9.57;62.58
37852;BME280;23691;52.486;4.650;2024-03-23T05:22:11;100883.50;;;9.52;62.66
37852;BME280;23691;52.486;4.650;2024-03-23T05:24:37;100881.84;;;9.51;62.60
37852;BME280;23691;52.486;4.650;2024-03-23T05:27:02;100885.19;;;9.53;62.27
37852;BME280;23691;52.486;4.650;2024-03-23T05:29:27;100885.34;;;9.51;62.61
37852;BME280;23691;52.486;4.650;2024-03-23T05:31:54;100882.81;;;9.50;62.68
37852;BME280;23691;52.486;4.650;2024-03-23T05:34:22;100870.69;;;9.55;62.50
37852;BME280;23691;52.486;4.650;2024-03-23T05:36:50;100884.53;;;9.59;62.60
37852;BME280;23691;52.486;4.650;2024-03-23T05:39:16;100882.88;;;9.58;62.49
37852;BME280;23691;52.486;4.650;2024-03-23T05:41:47;100878.53;;;9.57;62.89
37852;BME280;23691;52.486;4.650;2024-03-23T05:44:12;100875.00;;;9.56;62.59
37852;BME280;23691;52.486;4.650;2024-03-23T05:46:37;100872.34;;;9.56;62.62
37852;BME280;23691;52.486;4.650;2024-03-23T05:49:03;100873.19;;;9.57;62.82
37852;BME280;23691;52.486;4.650;2024-03-23T05:51:28;100866.38;;;9.62;62.92
37852;BME280;23691;52.486;4.650;2024-03-23T05:53:54;100870.00;;;9.53;63.28
37852;BME280;23691;52.486;4.650;2024-03-23T05:56:22;100869.44;;;9.50;63.63
37852;BME280;23691;52.486;4.650;2024-03-23T05:58:47;100867.78;;;9.49;63.78
37852;BME280;23691;52.486;4.650;2024-03-23T06:01:13;100871.47;;;9.48;63.96
37852;BME280;23691;52.486;4.650;2024-03-23T06:03:38;100869.78;;;9.46;63.88
37852;BME280;23691;52.486;4.650;2024-03-23T06:06:04;100873.44;;;9.45;63.93
37852;BME280;23691;52.486;4.650;2024-03-23T06:08:29;100871.47;;;9.48;63.81
37852;BME280;23691;52.486;4.650;2024-03-23T06:10:55;100884.81;;;9.48;63.87
37852;BME280;23691;52.486;4.650;2024-03-23T06:13:20;100875.94;;;9.47;63.45
37852;BME280;23691;52.486;4.650;2024-03-23T06:15:50;100877.47;;;9.50;63.59
37852;BME280;23691;52.486;4.650;2024-03-23T06:18:15;100878.34;;;9.50;63.51
37852;BME280;23691;52.486;4.650;2024-03-23T06:20:40;100887.16;;;9.51;63.57
37852;BME280;23691;52.486;4.650;2024-03-23T06:23:06;100875.47;;;9.52;63.47
37852;BME280;23691;52.486;4.650;2024-03-23T06:25:31;100873.81;;;9.51;63.35
37852;BME280;23691;52.486;4.650;2024-03-23T06:27:57;100879.63;;;9.46;62.54
37852;BME280;23691;52.486;4.650;2024-03-23T06:30:23;100868.56;;;9.41;62.86
37852;BME280;23691;52.486;4.650;2024-03-23T06:32:49;100884.28;;;9.44;62.95
37852;BME280;23691;52.486;4.650;2024-03-23T06:35:14;100871.63;;;9.46;62.93
37852;BME280;23691;52.486;4.650;2024-03-23T06:37:39;100870.47;;;9.49;62.75
37852;BME280;23691;52.486;4.650;2024-03-23T06:40:07;100877.38;;;9.59;62.96
37852;BME280;23691;52.486;4.650;2024-03-23T06:42:35;100876.06;;;9.63;62.26
37852;BME280;23691;52.486;4.650;2024-03-23T06:45:00;100876.06;;;9.63;62.53
37852;BME280;23691;52.486;4.650;2024-03-23T06:47:26;100874.69;;;9.59;61.91
37852;BME280;23691;52.486;4.650;2024-03-23T06:49:51;100878.00;;;9.53;61.75
37852;BME280;23691;52.486;4.650;2024-03-23T06:52:17;100874.66;;;9.51;61.19
37852;BME280;23691;52.486;4.650;2024-03-23T06:54:42;100873.63;;;9.52;61.34
37852;BME280;23691;52.486;4.650;2024-03-23T06:57:09;100884.69;;;9.57;60.92
37852;BME280;23691;52.486;4.650;2024-03-23T06:59:34;100882.34;;;9.54;60.88
37852;BME280;23691;52.486;4.650;2024-03-23T07:02:00;100893.03;;;9.54;60.97
37852;BME280;23691;52.486;4.650;2024-03-23T07:04:25;100881.19;;;9.57;61.26
37852;BME280;23691;52.486;4.650;2024-03-23T07:06:50;100886.59;;;9.65;60.96
37852;BME280;23691;52.486;4.650;2024-03-23T07:09:17;100881.91;;;9.67;60.81
37852;BME280;23691;52.486;4.650;2024-03-23T07:11:42;100878.09;;;9.70;60.62
37852;BME280;23691;52.486;4.650;2024-03-23T07:14:07;100886.09;;;9.70;60.77
37852;BME280;23691;52.486;4.650;2024-03-23T07:16:33;100876.91;;;9.64;60.43
37852;BME280;23691;52.486;4.650;2024-03-23T07:18:58;100889.94;;;9.67;60.60
37852;BME280;23691;52.486;4.650;2024-03-23T07:21:23;100885.44;;;9.67;60.46
37852;BME280;23691;52.486;4.650;2024-03-23T07:23:49;100888.00;;;9.77;60.68
37852;BME280;23691;52.486;4.650;2024-03-23T07:26:14;100883.50;;;9.78;60.12
37852;BME280;23691;52.486;4.650;2024-03-23T07:28:40;100871.97;;;9.77;60.15
37852;BME280;23691;52.486;4.650;2024-03-23T07:31:13;100878.03;;;9.87;59.87
37852;BME280;23691;52.486;4.650;2024-03-23T07:33:45;100880.41;;;9.91;59.55
37852;BME280;23691;52.486;4.650;2024-03-23T07:36:11;100887.94;;;9.95;58.96
37852;BME280;23691;52.486;4.650;2024-03-23T07:38:36;100887.75;;;9.97;58.84
37852;BME280;23691;52.486;4.650;2024-03-23T07:41:03;100873.97;;;10.09;58.81
37852;BME280;23691;52.486;4.650;2024-03-23T07:43:28;100889.84;;;10.11;58.70
37852;BME280;23691;52.486;4.650;2024-03-23T07:45:54;100875.50;;;10.12;58.62
37852;BME280;23691;52.486;4.650;2024-03-23T07:48:21;100861.78;;;10.15;58.22
37852;BME280;23691;52.486;4.650;2024-03-23T07:50:59;100864.50;;;10.23;58.23
37852;BME280;23691;52.486;4.650;2024-03-23T07:53:25;100873.44;;;10.40;57.17
37852;BME280;23691;52.486;4.650;2024-03-23T07:56:06;100863.63;;;10.49;56.69
37852;BME280;23691;52.486;4.650;2024-03-23T07:58:33;100871.09;;;10.45;56.80
37852;BME280;23691;52.486;4.650;2024-03-23T08:01:11;100867.09;;;10.41;57.23
37852;BME280;23691;52.486;4.650;2024-03-23T08:03:39;100867.41;;;10.38;57.20
37852;BME280;23691;52.486;4.650;2024-03-23T08:08:34;100868.63;;;10.44;57.55
37852;BME280;23691;52.486;4.650;2024-03-23T08:10:59;100868.63;;;10.60;57.29
37852;BME280;23691;52.486;4.650;2024-03-23T08:13:24;100874.66;;;10.62;57.32
37852;BME280;23691;52.486;4.650;2024-03-23T08:15:50;100885.69;;;10.51;57.59
37852;BME280;23691;52.486;4.650;2024-03-23T08:18:15;100872.00;;;10.62;57.37
37852;BME280;23691;52.486;4.650;2024-03-23T08:20:41;100876.03;;;10.74;56.71
37852;BME280;23691;52.486;4.650;2024-03-23T08:23:07;100874.34;;;10.65;57.06
37852;BME280;23691;52.486;4.650;2024-03-23T08:25:33;100863.78;;;10.56;57.66
37852;BME280;23691;52.486;4.650;2024-03-23T08:27:58;100867.63;;;10.53;57.91
37852;BME280;23691;52.486;4.650;2024-03-23T08:30:24;100868.16;;;10.65;57.47
37852;BME280;23691;52.486;4.650;2024-03-23T08:32:49;100872.81;;;10.63;57.69
37852;BME280;23691;52.486;4.650;2024-03-23T08:35:15;100868.84;;;10.75;57.26
37852;BME280;23691;52.486;4.650;2024-03-23T08:37:40;100872.22;;;10.93;57.40
37852;BME280;23691;52.486;4.650;2024-03-23T08:40:06;100869.53;;;10.93;57.45
37852;BME280;23691;52.486;4.650;2024-03-23T08:42:31;100869.38;;;11.11;56.44
37852;BME280;23691;52.486;4.650;2024-03-23T08:44:57;100865.03;;;11.10;56.00
37852;BME280;23691;52.486;4.650;2024-03-23T08:47:22;100871.22;;;11.11;55.74
37852;BME280;23691;52.486;4.650;2024-03-23T08:49:47;100867.34;;;11.22;55.78
37852;BME280;23691;52.486;4.650;2024-03-23T08:52:13;100871.22;;;11.27;55.65
37852;BME280;23691;52.486;4.650;2024-03-23T08:54:38;100877.41;;;11.11;55.74
37852;BME280;23691;52.486;4.650;2024-03-23T08:57:04;100858.31;;;11.06;56.03
37852;BME280;23691;52.486;4.650;2024-03-23T08:59:29;100858.31;;;11.31;55.00
37852;BME280;23691;52.486;4.650;2024-03-23T09:01:55;100865.50;;;11.22;55.58
37852;BME280;23691;52.486;4.650;2024-03-23T09:04:21;100869.34;;;10.95;55.82
37852;BME280;23691;52.486;4.650;2024-03-23T09:06:46;100887.06;;;10.80;55.40
37852;BME280;23691;52.486;4.650;2024-03-23T09:09:12;100861.31;;;10.79;54.98
37852;BME280;23691;52.486;4.650;2024-03-23T09:11:37;100866.69;;;10.87;54.99
37852;BME280;23691;52.486;4.650;2024-03-23T09:14:03;100871.34;;;10.77;55.14
37852;BME280;23691;52.486;4.650;2024-03-23T09:16:28;100879.03;;;10.80;54.89
37852;BME280;23691;52.486;4.650;2024-03-23T09:18:54;100866.00;;;10.85;55.34
37852;BME280;23691;52.486;4.650;2024-03-23T09:21:19;100863.66;;;11.14;55.11
37852;BME280;23691;52.486;4.650;2024-03-23T09:23:45;100865.19;;;11.17;55.28
37852;BME280;23691;52.486;4.650;2024-03-23T09:26:10;100861.00;;;11.06;55.25
37852;BME280;23691;52.486;4.650;2024-03-23T09:28:35;100865.34;;;10.91;55.67
37852;BME280;23691;52.486;4.650;2024-03-23T09:31:05;100871.88;;;10.96;55.62
37852;BME280;23691;52.486;4.650;2024-03-23T09:33:30;100866.53;;;11.13;54.89
37852;BME280;23691;52.486;4.650;2024-03-23T09:35:56;100861.31;;;11.36;54.70
37852;BME280;23691;52.486;4.650;2024-03-23T09:38:22;100861.13;;;11.62;54.41
37852;BME280;23691;52.486;4.650;2024-03-23T09:40:50;100870.78;;;11.79;54.23
37852;BME280;23691;52.486;4.650;2024-03-23T09:43:18;100866.78;;;11.75;53.92
37852;BME280;23691;52.486;4.650;2024-03-23T09:45:45;100867.44;;;11.77;53.63
37852;BME280;23691;52.486;4.650;2024-03-23T09:48:10;100870.78;;;11.88;53.57
37852;BME280;23691;52.486;4.650;2024-03-23T09:50:40;100864.56;;;11.95;53.28
37852;BME280;23691;52.486;4.650;2024-03-23T09:53:10;100852.66;;;12.06;52.92
37852;BME280;23691;52.486;4.650;2024-03-23T09:55:40;100865.91;;;11.99;53.07
37852;BME280;23691;52.486;4.650;2024-03-23T09:58:06;100856.16;;;12.07;52.55
37852;BME280;23691;52.486;4.650;2024-03-23T10:00:33;100868.25;;;11.86;53.03
37852;BME280;23691;52.486;4.650;2024-03-23T10:02:59;100857.22;;;11.73;53.64
37852;BME280;23691;52.486;4.650;2024-03-23T10:05:27;100860.25;;;11.70;54.71
37852;BME280;23691;52.486;4.650;2024-03-23T10:07:53;100859.59;;;11.68;55.39
37852;BME280;23691;52.486;4.650;2024-03-23T10:10:19;100858.09;;;11.65;55.36
37852;BME280;23691;52.486;4.650;2024-03-23T10:12:47;100862.91;;;11.78;55.48
37852;BME280;23691;52.486;4.650;2024-03-23T10:15:25;100859.25;;;11.79;55.97
37852;BME280;23691;52.486;4.650;2024-03-23T10:17:51;100859.56;;;11.92;55.83
37852;BME280;23691;52.486;4.650;2024-03-23T10:20:21;100854.16;;;12.00;55.94
37852;BME280;23691;52.486;4.650;2024-03-23T10:22:49;100859.19;;;11.95;55.46
37852;BME280;23691;52.486;4.650;2024-03-23T10:25:15;100854.63;;;12.12;55.23
37852;BME280;23691;52.486;4.650;2024-03-23T10:27:40;100845.31;;;12.31;54.86
37852;BME280;23691;52.486;4.650;2024-03-23T10:30:14;100860.97;;;12.19;55.18
37852;BME280;23691;52.486;4.650;2024-03-23T10:32:42;100855.91;;;12.24;55.10
37852;BME280;23691;52.486;4.650;2024-03-23T10:35:15;100859.59;;;12.23;54.35
37852;BME280;23691;52.486;4.650;2024-03-23T10:37:44;100872.03;;;12.16;54.22
37852;BME280;23691;52.486;4.650;2024-03-23T10:40:12;100859.16;;;12.12;54.17
37852;BME280;23691;52.486;4.650;2024-03-23T10:42:38;100861.72;;;11.97;54.18
37852;BME280;23691;52.486;4.650;2024-03-23T10:45:05;100855.53;;;11.96;54.15
37852;BME280;23691;52.486;4.650;2024-03-23T10:47:32;100855.84;;;12.01;54.13
37852;BME280;23691;52.486;4.650;2024-03-23T10:49:57;100857.47;;;12.11;53.92
37852;BME280;23691;52.486;4.650;2024-03-23T10:52:23;100873.75;;;12.09;53.54
37852;BME280;23691;52.486;4.650;2024-03-23T10:54:51;100861.78;;;12.20;53.00
37852;BME280;23691;52.486;4.650;2024-03-23T10:57:21;100863.91;;;12.33;52.88
37852;BME280;23691;52.486;4.650;2024-03-23T10:59:48;100856.66;;;12.41;53.15
37852;BME280;23691;52.486;4.650;2024-03-23T11:02:20;100842.28;;;12.57;53.25
37852;BME280;23691;52.486;4.650;2024-03-23T11:04:46;100873.22;;;12.76;53.23
37852;BME280;23691;52.486;4.650;2024-03-23T11:09:53;100857.50;;;12.42;52.85
37852;BME280;23691;52.486;4.650;2024-03-23T11:14:48;100831.09;;;12.22;53.75
37852;BME280;23691;52.486;4.650;2024-03-23T11:17:19;100857.59;;;12.17;54.66
37852;BME280;23691;52.486;4.650;2024-03-23T11:20:02;100845.09;;;12.41;54.74
37852;BME280;23691;52.486;4.650;2024-03-23T11:25:11;100836.59;;;12.60;53.20
37852;BME280;23691;52.486;4.650;2024-03-23T11:27:37;100851.22;;;12.50;53.36
37852;BME280;23691;52.486;4.650;2024-03-23T11:30:26;100837.00;;;12.49;52.83
37852;BME280;23691;52.486;4.650;2024-03-23T11:32:54;100833.63;;;12.47;52.96
37852;BME280;23691;52.486;4.650;2024-03-23T11:35:39;100829.06;;;12.56;52.39
37852;BME280;23691;52.486;4.650;2024-03-23T11:40:38;100816.09;;;12.67;51.62
37852;BME280;23691;52.486;4.650;2024-03-23T11:43:14;100827.47;;;12.93;51.61
37852;BME280;23691;52.486;4.650;2024-03-23T11:45:45;100826.19;;;13.03;51.23
37852;BME280;23691;52.486;4.650;2024-03-23T11:48:19;100831.06;;;13.23;50.72
37852;BME280;23691;52.486;4.650;2024-03-23T11:50:57;100822.22;;;13.52;49.27
37852;BME280;23691;52.486;4.650;2024-03-23T11:53:23;100814.91;;;13.46;49.10
37852;BME280;23691;52.486;4.650;2024-03-23T11:55:59;100818.81;;;13.20;49.57
37852;BME280;23691;52.486;4.650;2024-03-23T11:58:32;100815.31;;;13.20;49.76
37852;BME280;23691;52.486;4.650;2024-03-23T12:01:00;100815.53;;;13.33;49.33
37852;BME280;23691;52.486;4.650;2024-03-23T12:03:27;100812.91;;;13.25;49.61
37852;BME280;23691;52.486;4.650;2024-03-23T12:06:00;100816.59;;;13.24;49.53
37852;BME280;23691;52.486;4.650;2024-03-23T12:08:31;100826.88;;;13.20;49.05
37852;BME280;23691;52.486;4.650;2024-03-23T12:13:40;100810.91;;;13.04;48.25
37852;BME280;23691;52.486;4.650;2024-03-23T12:16:18;100808.53;;;12.86;48.30
37852;BME280;23691;52.486;4.650;2024-03-23T12:18:50;100813.84;;;12.94;48.34
37852;BME280;23691;52.486;4.650;2024-03-23T12:21:20;100795.78;;;12.88;47.58
37852;BME280;23691;52.486;4.650;2024-03-23T12:23:48;100792.00;;;12.97;47.65
37852;BME280;23691;52.486;4.650;2024-03-23T12:26:21;100799.50;;;13.02;47.45
37852;BME280;23691;52.486;4.650;2024-03-23T12:28:48;100805.53;;;13.27;47.59
37852;BME280;23691;52.486;4.650;2024-03-23T12:31:16;100785.31;;;13.31;47.50
37852;BME280;23691;52.486;4.650;2024-03-23T12:33:41;100812.91;;;13.25;47.63
37852;BME280;23691;52.486;4.650;2024-03-23T12:36:32;100807.69;;;13.23;47.60
37852;BME280;23691;52.486;4.650;2024-03-23T12:38:57;100806.69;;;13.24;46.83
37852;BME280;23691;52.486;4.650;2024-03-23T12:41:25;100792.63;;;13.22;46.92
37852;BME280;23691;52.486;4.650;2024-03-23T12:43:51;100798.75;;;12.93;47.16
37852;BME280;23691;52.486;4.650;2024-03-23T12:46:16;100783.56;;;12.85;47.12
37852;BME280;23691;52.486;4.650;2024-03-23T12:48:44;100785.94;;;12.80;46.48
37852;BME280;23691;52.486;4.650;2024-03-23T12:51:09;100799.41;;;12.72;46.22
37852;BME280;23691;52.486;4.650;2024-03-23T12:53:35;100787.69;;;12.73;46.67
37852;BME280;23691;52.486;4.650;2024-03-23T12:56:25;100778.66;;;13.04;46.48
37852;BME280;23691;52.486;4.650;2024-03-23T12:59:11;100780.84;;;13.23;46.57
37852;BME280;23691;52.486;4.650;2024-03-23T13:01:58;100773.03;;;13.14;46.32
37852;BME280;23691;52.486;4.650;2024-03-23T13:04:44;100786.31;;;13.15;46.83
37852;BME280;23691;52.486;4.650;2024-03-23T13:07:39;100811.09;;;13.02;47.61
37852;BME280;23691;52.486;4.650;2024-03-23T13:10:25;100771.84;;;13.16;47.97
37852;BME280;23691;52.486;4.650;2024-03-23T13:13:11;100773.41;;;13.10;48.77
37852;BME280;23691;52.486;4.650;2024-03-23T13:15:56;100760.81;;;13.11;49.16
37852;BME280;23691;52.486;4.650;2024-03-23T13:18:49;100766.44;;;13.01;48.70
37852;BME280;23691;52.486;4.650;2024-03-23T13:21:36;100764.13;;;12.98;48.74
37852;BME280;23691;52.486;4.650;2024-03-23T13:24:23;100752.97;;;13.09;49.04
37852;BME280;23691;52.486;4.650;2024-03-23T13:27:09;100758.81;;;13.28;48.57
37852;BME280;23691;52.486;4.650;2024-03-23T13:30:03;100758.13;;;13.11;47.79
37852;BME280;23691;52.486;4.650;2024-03-23T13:32:56;100750.63;;;13.21;47.45
37852;BME280;23691;52.486;4.650;2024-03-23T13:35:58;100755.38;;;13.19;46.78
37852;BME280;23691;52.486;4.650;2024-03-23T13:38:47;100733.66;;;12.91;46.76
37852;BME280;23691;52.486;4.650;2024-03-23T13:41:33;100741.75;;;12.68;47.20
37852;BME280;23691;52.486;4.650;2024-03-23T13:44:18;100739.34;;;12.73;47.81
37852;BME280;23691;52.486;4.650;2024-03-23T13:47:11;100745.53;;;13.11;47.78
37852;BME280;23691;52.486;4.650;2024-03-23T13:49:56;100743.09;;;13.02;47.96
37852;BME280;23691;52.486;4.650;2024-03-23T13:52:22;100739.41;;;13.03;48.18
37852;BME280;23691;52.486;4.650;2024-03-23T13:54:51;100733.66;;;12.91;48.29
37852;BME280;23691;52.486;4.650;2024-03-23T13:57:17;100727.59;;;12.74;48.62
37852;BME280;23691;52.486;4.650;2024-03-23T13:59:46;100744.59;;;12.66;48.79
37852;BME280;23691;52.486;4.650;2024-03-23T14:02:12;100738.81;;;12.78;48.53
37852;BME280;23691;52.486;4.650;2024-03-23T14:04:40;100726.81;;;13.03;48.07
37852;BME280;23691;52.486;4.650;2024-03-23T14:07:05;100731.13;;;13.27;48.45